Time;durP1;ratioP1;P1;durP2;ratioP2;P2;SDS_P1;SDS_P2;PMS_P1;PMS_P2;Temp;Humidity;BMP_temperature;BMP_pressure;BME280_temperature;BME280_humidity;BME280_pressure;Samples;Min_cycle;Max_cycle;Signal;HPM_P1;HPM_P2
2023/10/20 00:01:01;;;;;;;21.45;14.25;;;;;;;;;;5080152;28;20047;-59
2023/10/20 00:03:28;;;;;;;23.88;13.88;;;;;;;;;;5080337;28;20044;-59
2023/10/20 00:05:54;;;;;;;21.75;13.48;;;;;;;;;;5074654;28;20111;-59
2023/10/20 00:08:20;;;;;;;20.75;13.38;;;;;;;;;;5083721;28;20062;-59
2023/10/20 00:10:46;;;;;;;22.77;13.77;;;;;;;;;;5082447;28;20098;-59
2023/10/20 00:13:12;;;;;;;23.33;13.80;;;;;;;;;;5080247;28;20476;-59
2023/10/20 00:15:38;;;;;;;21.48;13.27;;;;;;;;;;5082368;28;20376;-59
2023/10/20 00:18:05;;;;;;;21.13;13.43;;;;;;;;;;5082846;28;20491;-59
2023/10/20 00:20:31;;;;;;;19.70;13.95;;;;;;;;;;5076350;28;20053;-59
2023/10/20 00:22:57;;;;;;;22.98;13.98;;;;;;;;;;5082905;28;20067;-59
2023/10/20 00:25:23;;;;;;;19.75;12.88;;;;;;;;;;5074187;28;20033;-59
2023/10/20 00:27:50;;;;;;;20.10;13.73;;;;;;;;;;5077552;28;20091;-59
2023/10/20 00:30:16;;;;;;;24.98;14.07;;;;;;;;;;5083347;28;20123;-59
2023/10/20 00:32:43;;;;;;;24.58;14.52;;;;;;;;;;5076438;28;20076;-59
2023/10/20 00:35:10;;;;;;;23.00;13.88;;;;;;;;;;5077757;28;20067;-59
2023/10/20 00:37:36;;;;;;;21.23;13.73;;;;;;;;;;5082331;28;20040;-59
2023/10/20 00:40:07;;;;;;;22.83;14.05;;;;;;;;;;5072743;28;20056;-59
2023/10/20 00:42:34;;;;;;;20.73;12.82;;;;;;;;;;5071635;28;20044;-59
2023/10/20 00:45:00;;;;;;;24.85;14.18;;;;;;;;;;5084633;28;20047;-59
2023/10/20 00:47:27;;;;;;;24.90;14.30;;;;;;;;;;5085989;28;20051;-59
2023/10/20 00:49:54;;;;;;;21.77;13.13;;;;;;;;;;5084922;28;20181;-59
2023/10/20 00:52:21;;;;;;;24.95;13.88;;;;;;;;;;5087328;28;20488;-59
2023/10/20 00:54:48;;;;;;;21.35;12.95;;;;;;;;;;5082872;28;20391;-59
2023/10/20 00:57:16;;;;;;;20.83;13.38;;;;;;;;;;5088602;28;20114;-59
2023/10/20 00:59:43;;;;;;;23.75;13.57;;;;;;;;;;5089484;28;20361;-59
2023/10/20 01:02:09;;;;;;;23.88;13.48;;;;;;;;;;5070005;28;20048;-59
2023/10/20 01:04:35;;;;;;;24.90;13.93;;;;;;;;;;5070630;28;20201;-59
2023/10/20 01:07:02;;;;;;;20.80;13.02;;;;;;;;;;5071094;28;20051;-59
2023/10/20 01:09:28;;;;;;;22.08;12.75;;;;;;;;;;5072041;28;20478;-60
2023/10/20 01:11:55;;;;;;;24.60;13.70;;;;;;;;;;5071674;28;20040;-59
2023/10/20 01:14:21;;;;;;;21.58;13.50;;;;;;;;;;5070769;28;20051;-59
2023/10/20 01:16:48;;;;;;;22.23;13.57;;;;;;;;;;5071842;28;20127;-59
2023/10/20 01:19:15;;;;;;;27.17;13.65;;;;;;;;;;5072594;28;20062;-59
2023/10/20 01:21:41;;;;;;;23.92;14.48;;;;;;;;;;5072159;28;20505;-59
2023/10/20 01:24:08;;;;;;;22.05;13.20;;;;;;;;;;5071763;28;20055;-59
2023/10/20 01:26:34;;;;;;;23.55;13.30;;;;;;;;;;5070512;28;20056;-58
2023/10/20 01:29:00;;;;;;;22.30;12.73;;;;;;;;;;5072143;28;20052;-59
2023/10/20 01:31:26;;;;;;;22.95;13.13;;;;;;;;;;5069767;28;20044;-59
2023/10/20 01:33:53;;;;;;;25.50;13.68;;;;;;;;;;5068491;28;20060;-59
2023/10/20 01:36:19;;;;;;;22.88;12.90;;;;;;;;;;5073197;28;20499;-59
2023/10/20 01:38:45;;;;;;;20.52;12.15;;;;;;;;;;5071296;28;20040;-59
2023/10/20 01:41:11;;;;;;;24.70;12.85;;;;;;;;;;5070735;28;20059;-59
2023/10/20 01:43:37;;;;;;;25.95;14.63;;;;;;;;;;5071072;28;20055;-59
2023/10/20 01:46:04;;;;;;;26.85;13.55;;;;;;;;;;5069694;28;20142;-59
2023/10/20 01:48:30;;;;;;;22.73;13.43;;;;;;;;;;5070802;28;20437;-59
2023/10/20 01:50:59;;;;;;;28.85;14.15;;;;;;;;;;5069865;28;20060;-59
2023/10/20 01:53:26;;;;;;;26.50;14.15;;;;;;;;;;5059731;28;20060;-59
2023/10/20 01:55:52;;;;;;;27.38;14.50;;;;;;;;;;5070197;28;20430;-59
2023/10/20 01:58:19;;;;;;;27.38;14.43;;;;;;;;;;5071993;28;20042;-59
2023/10/20 02:00:48;;;;;;;24.80;13.77;;;;;;;;;;5071990;28;20096;-59
2023/10/20 02:03:15;;;;;;;27.60;14.60;;;;;;;;;;5068728;28;20051;-59
2023/10/20 02:05:41;;;;;;;27.48;13.90;;;;;;;;;;5068877;28;20132;-59
2023/10/20 02:08:10;;;;;;;32.08;16.13;;;;;;;;;;5073468;28;20205;-59
2023/10/20 02:10:37;;;;;;;29.55;15.55;;;;;;;;;;5072833;28;20055;-59
2023/10/20 02:13:03;;;;;;;31.17;15.35;;;;;;;;;;5086273;28;20074;-59
2023/10/20 02:15:30;;;;;;;33.22;16.52;;;;;;;;;;5068678;28;20725;-59
2023/10/20 02:17:59;;;;;;;34.72;16.75;;;;;;;;;;5068956;28;20037;-59
2023/10/20 02:20:26;;;;;;;30.27;17.10;;;;;;;;;;5079614;28;20628;-59
2023/10/20 02:22:55;;;;;;;35.75;17.90;;;;;;;;;;5088795;28;20067;-59
2023/10/20 02:25:22;;;;;;;40.47;17.15;;;;;;;;;;5078278;28;20098;-59
2023/10/20 02:27:48;;;;;;;36.58;18.02;;;;;;;;;;5068691;28;20039;-59
2023/10/20 02:30:15;;;;;;;34.75;18.88;;;;;;;;;;5070397;28;20143;-59
2023/10/20 02:32:42;;;;;;;39.47;19.15;;;;;;;;;;5070897;28;20036;-59
2023/10/20 02:35:09;;;;;;;32.17;17.38;;;;;;;;;;5066147;28;20179;-59
2023/10/20 02:37:35;;;;;;;33.17;17.80;;;;;;;;;;5071453;28;20388;-59
2023/10/20 02:40:04;;;;;;;35.25;18.30;;;;;;;;;;5068723;28;20048;-59
2023/10/20 02:42:34;;;;;;;38.58;19.00;;;;;;;;;;5066707;28;20137;-59
2023/10/20 02:45:00;;;;;;;35.85;18.02;;;;;;;;;;5071177;28;20060;-59
2023/10/20 02:47:26;;;;;;;40.25;18.88;;;;;;;;;;5074095;28;20045;-59
2023/10/20 02:49:56;;;;;;;39.05;19.15;;;;;;;;;;5074090;28;20036;-59
2023/10/20 02:52:25;;;;;;;40.28;19.55;;;;;;;;;;5074450;28;20040;-59
2023/10/20 02:54:56;;;;;;;40.75;19.42;;;;;;;;;;5076252;28;20456;-59
2023/10/20 02:57:22;;;;;;;42.85;19.63;;;;;;;;;;5071367;28;20051;-59
2023/10/20 02:59:49;;;;;;;43.38;19.42;;;;;;;;;;5073288;28;20334;-59
2023/10/20 03:02:20;;;;;;;39.45;20.02;;;;;;;;;;5071736;28;20039;-59
2023/10/20 03:04:46;;;;;;;39.38;19.50;;;;;;;;;;5072041;28;20052;-59
2023/10/20 03:07:12;;;;;;;37.95;19.08;;;;;;;;;;5073622;28;20109;-59
2023/10/20 03:09:39;;;;;;;40.70;19.52;;;;;;;;;;5075263;28;20035;-59
2023/10/20 03:12:05;;;;;;;38.55;21.27;;;;;;;;;;5072445;28;20376;-59
2023/10/20 03:14:33;;;;;;;41.08;19.77;;;;;;;;;;5073208;28;20044;-59
2023/10/20 03:17:00;;;;;;;43.67;21.00;;;;;;;;;;5072750;28;20044;-59
2023/10/20 03:19:26;;;;;;;43.15;20.05;;;;;;;;;;5073038;28;20040;-59
2023/10/20 03:21:52;;;;;;;38.88;20.30;;;;;;;;;;5072412;28;20142;-58
2023/10/20 03:24:19;;;;;;;44.13;21.10;;;;;;;;;;5066421;28;20137;-58
2023/10/20 03:26:45;;;;;;;37.67;19.58;;;;;;;;;;5069732;28;20036;-59
2023/10/20 03:29:11;;;;;;;42.97;20.63;;;;;;;;;;5071204;28;20492;-59
2023/10/20 03:31:37;;;;;;;42.05;20.70;;;;;;;;;;5072192;28;20075;-59
2023/10/20 03:34:04;;;;;;;45.92;20.67;;;;;;;;;;5069701;28;20047;-59
2023/10/20 03:36:30;;;;;;;50.35;22.17;;;;;;;;;;5073354;28;20040;-59
2023/10/20 03:38:56;;;;;;;41.78;20.65;;;;;;;;;;5072767;28;20051;-59
2023/10/20 03:41:22;;;;;;;37.60;21.15;;;;;;;;;;5072604;28;20524;-59
2023/10/20 03:43:50;;;;;;;43.75;21.15;;;;;;;;;;5073018;28;20048;-59
2023/10/20 03:46:18;;;;;;;39.95;20.65;;;;;;;;;;5071337;28;20048;-59
2023/10/20 03:48:45;;;;;;;39.10;20.58;;;;;;;;;;5073299;28;20079;-59
2023/10/20 03:51:12;;;;;;;43.50;22.20;;;;;;;;;;5071869;28;20442;-59
2023/10/20 03:53:52;;;;;;;41.15;21.58;;;;;;;;;;5072731;28;20040;-59
2023/10/20 03:56:23;;;;;;;39.47;20.52;;;;;;;;;;5072820;28;20437;-59
2023/10/20 03:58:49;;;;;;;44.05;21.05;;;;;;;;;;5072534;28;20052;-59
2023/10/20 04:01:16;;;;;;;48.03;20.08;;;;;;;;;;5071535;28;20059;-59
2023/10/20 04:03:45;;;;;;;43.40;21.27;;;;;;;;;;5070608;28;20376;-59
2023/10/20 04:06:12;;;;;;;38.35;20.83;;;;;;;;;;5071603;28;20449;-59
2023/10/20 04:08:39;;;;;;;42.38;21.67;;;;;;;;;;5072500;28;20128;-59
2023/10/20 04:11:05;;;;;;;41.00;20.25;;;;;;;;;;5070873;28;20129;-59
2023/10/20 04:13:32;;;;;;;40.67;21.40;;;;;;;;;;5072247;28;20045;-59
2023/10/20 04:15:58;;;;;;;37.55;20.60;;;;;;;;;;5072093;28;20131;-59
2023/10/20 04:18:24;;;;;;;42.42;20.35;;;;;;;;;;5072957;28;20049;-59
2023/10/20 04:20:50;;;;;;;34.50;19.38;;;;;;;;;;5067780;28;20048;-59
2023/10/20 04:23:17;;;;;;;36.08;20.30;;;;;;;;;;5072926;28;20404;-59
2023/10/20 04:25:53;;;;;;;37.67;19.08;;;;;;;;;;5071774;28;20044;-59
2023/10/20 04:28:20;;;;;;;37.42;18.08;;;;;;;;;;5071879;28;20049;-59
2023/10/20 05:05:12;;;;;;;24.58;15.00;;;;;;;;;;5070002;28;20131;-59
2023/10/20 05:07:47;;;;;;;;;;;;;;;;;;5072209;28;20465;-59
2023/10/20 05:10:14;;;;;;;25.65;13.93;;;;;;;;;;5069452;28;19927;-59
2023/10/20 05:12:40;;;;;;;23.30;14.13;;;;;;;;;;5070892;28;20043;-59
2023/10/20 05:15:06;;;;;;;22.52;13.25;;;;;;;;;;5062120;28;20036;-59
2023/10/20 05:17:34;;;;;;;22.17;13.00;;;;;;;;;;5066048;28;20082;-59
2023/10/20 05:20:00;;;;;;;23.02;13.52;;;;;;;;;;5070804;28;20146;-60
2023/10/20 05:22:27;;;;;;;24.90;13.20;;;;;;;;;;5069057;28;20115;-59
2023/10/20 05:24:53;;;;;;;21.20;12.98;;;;;;;;;;5068431;28;20045;-59
2023/10/20 05:27:19;;;;;;;21.02;13.00;;;;;;;;;;5070630;28;20052;-59
2023/10/20 05:29:45;;;;;;;20.15;12.38;;;;;;;;;;5071214;28;20064;-59
2023/10/20 05:32:11;;;;;;;19.83;12.73;;;;;;;;;;5070193;28;20040;-59
2023/10/20 05:34:38;;;;;;;21.48;12.45;;;;;;;;;;5068161;28;20051;-59
2023/10/20 05:37:04;;;;;;;18.98;11.10;;;;;;;;;;5071269;28;20175;-59
2023/10/20 05:39:30;;;;;;;19.33;11.13;;;;;;;;;;5069391;28;20044;-59
2023/10/20 05:41:56;;;;;;;19.00;12.02;;;;;;;;;;5071254;28;20084;-59
2023/10/20 05:44:23;;;;;;;17.52;10.55;;;;;;;;;;5070496;28;20041;-59
2023/10/20 05:46:49;;;;;;;20.42;11.45;;;;;;;;;;5070407;28;20458;-59
2023/10/20 05:49:15;;;;;;;19.13;11.05;;;;;;;;;;5068989;28;20102;-59
2023/10/20 05:51:41;;;;;;;17.23;10.20;;;;;;;;;;5070580;28;20369;-59
2023/10/20 05:54:08;;;;;;;16.95;9.95;;;;;;;;;;5068404;28;20040;-59
2023/10/20 05:56:34;;;;;;;15.10;9.70;;;;;;;;;;5070714;28;20041;-59
2023/10/20 05:59:00;;;;;;;19.27;9.90;;;;;;;;;;5067894;28;20041;-58
2023/10/20 06:01:26;;;;;;;14.85;9.23;;;;;;;;;;5070391;28;20036;-61
2023/10/20 06:03:52;;;;;;;15.00;9.23;;;;;;;;;;5066686;28;20497;-59
2023/10/20 06:06:19;;;;;;;19.30;8.73;;;;;;;;;;5056489;28;20390;-59
2023/10/20 06:08:45;;;;;;;14.10;8.02;;;;;;;;;;5067071;28;20086;-59
2023/10/20 06:11:11;;;;;;;14.65;8.40;;;;;;;;;;5067636;28;20119;-58
2023/10/20 06:13:37;;;;;;;13.27;8.18;;;;;;;;;;5069262;28;20052;-59
2023/10/20 06:16:12;;;;;;;12.23;7.72;;;;;;;;;;5068558;28;20119;-59
2023/10/20 06:18:40;;;;;;;13.45;8.05;;;;;;;;;;5058325;28;20040;-57
2023/10/20 06:21:07;;;;;;;13.98;7.90;;;;;;;;;;5069787;28;20124;-59
2023/10/20 06:23:33;;;;;;;14.07;7.20;;;;;;;;;;5070076;28;20048;-59
2023/10/20 06:25:59;;;;;;;12.00;6.40;;;;;;;;;;5070953;28;20063;-59
2023/10/20 06:28:26;;;;;;;13.13;6.90;;;;;;;;;;5068345;28;20056;-60
2023/10/20 06:30:53;;;;;;;14.63;6.78;;;;;;;;;;5068430;28;20392;-59
2023/10/20 06:33:20;;;;;;;14.02;6.15;;;;;;;;;;5070568;28;20366;-60
2023/10/20 06:35:53;;;;;;;11.70;6.72;;;;;;;;;;5069765;28;20395;-59
2023/10/20 06:38:44;;;;;;;11.38;5.53;;;;;;;;;;5068820;28;20036;-59
2023/10/20 06:41:13;;;;;;;11.73;5.60;;;;;;;;;;5069209;28;20424;-59
2023/10/20 06:43:39;;;;;;;9.35;4.72;;;;;;;;;;5070736;28;20045;-59
2023/10/20 06:46:05;;;;;;;8.43;4.20;;;;;;;;;;5069305;28;20041;-59
2023/10/20 06:48:31;;;;;;;11.07;4.80;;;;;;;;;;5069685;28;20048;-59
2023/10/20 06:50:58;;;;;;;9.20;4.82;;;;;;;;;;5069110;28;20582;-59
2023/10/20 06:53:25;;;;;;;12.25;4.70;;;;;;;;;;5070522;28;20067;-59
2023/10/20 06:55:51;;;;;;;11.90;4.10;;;;;;;;;;5068309;28;20045;-59
2023/10/20 06:58:18;;;;;;;8.73;4.32;;;;;;;;;;5068802;28;20041;-59
2023/10/20 07:00:45;;;;;;;6.50;4.05;;;;;;;;;;5070361;28;20037;-59
2023/10/20 07:03:11;;;;;;;8.27;4.05;;;;;;;;;;5067368;28;20400;-59
2023/10/20 07:05:40;;;;;;;7.80;4.00;;;;;;;;;;5069396;28;20055;-60
2023/10/20 07:08:06;;;;;;;8.15;3.75;;;;;;;;;;5067178;28;20060;-59
2023/10/20 07:10:39;;;;;;;7.57;3.95;;;;;;;;;;5061725;28;20056;-59
2023/10/20 07:13:08;;;;;;;7.95;3.90;;;;;;;;;;5061639;28;20476;-58
2023/10/20 07:15:37;;;;;;;7.82;4.38;;;;;;;;;;5061141;28;20036;-59
2023/10/20 07:18:03;;;;;;;8.25;4.35;;;;;;;;;;5060651;28;20059;-59
2023/10/20 07:20:32;;;;;;;9.02;4.25;;;;;;;;;;5068534;28;20044;-59
2023/10/20 07:22:58;;;;;;;6.55;3.55;;;;;;;;;;5067474;28;20102;-59
2023/10/20 07:25:25;;;;;;;8.73;4.07;;;;;;;;;;5067419;28;20094;-59
2023/10/20 07:27:52;;;;;;;7.05;3.78;;;;;;;;;;5063597;28;20165;-59
2023/10/20 07:30:18;;;;;;;10.23;4.47;;;;;;;;;;5068049;28;20049;-59
2023/10/20 07:32:44;;;;;;;8.38;4.03;;;;;;;;;;5070299;28;20461;-59
2023/10/20 07:35:15;;;;;;;9.02;4.60;;;;;;;;;;5073816;28;20044;-59
2023/10/20 07:37:41;;;;;;;8.10;3.90;;;;;;;;;;5070476;28;20056;-59
2023/10/20 07:40:07;;;;;;;6.60;3.75;;;;;;;;;;5072667;28;20040;-59
2023/10/20 07:42:34;;;;;;;8.45;4.10;;;;;;;;;;5073843;28;20044;-59
2023/10/20 07:45:00;;;;;;;7.00;3.45;;;;;;;;;;5072843;28;20044;-59
2023/10/20 07:47:27;;;;;;;7.57;4.05;;;;;;;;;;5073028;28;20041;-59
2023/10/20 07:49:53;;;;;;;5.88;2.95;;;;;;;;;;5073456;28;20084;-59
2023/10/20 07:52:19;;;;;;;7.30;4.50;;;;;;;;;;5072235;28;20429;-59
2023/10/20 07:54:46;;;;;;;7.60;4.07;;;;;;;;;;5072203;28;20205;-59
2023/10/20 07:57:13;;;;;;;7.55;3.22;;;;;;;;;;5072439;28;20475;-59
2023/10/20 07:59:39;;;;;;;6.45;3.38;;;;;;;;;;5070186;28;20106;-59
2023/10/20 08:02:05;;;;;;;5.90;3.22;;;;;;;;;;5067282;28;20067;-59
2023/10/20 08:04:36;;;;;;;8.88;3.63;;;;;;;;;;5072444;28;20036;-59
2023/10/20 08:07:03;;;;;;;9.32;3.40;;;;;;;;;;5072490;28;20511;-59
2023/10/20 08:09:29;;;;;;;6.10;3.65;;;;;;;;;;5072257;28;20123;-59
2023/10/20 08:11:56;;;;;;;7.53;3.25;;;;;;;;;;5070964;28;20049;-59
2023/10/20 08:14:26;;;;;;;5.47;2.80;;;;;;;;;;5069192;28;20065;-59
2023/10/20 08:16:52;;;;;;;5.35;3.00;;;;;;;;;;5065307;28;20045;-58
2023/10/20 08:19:18;;;;;;;7.53;3.40;;;;;;;;;;5072628;28;20041;-59
2023/10/20 08:21:44;;;;;;;6.60;3.22;;;;;;;;;;5070448;28;20102;-59
2023/10/20 08:24:11;;;;;;;9.75;4.00;;;;;;;;;;5072436;28;20036;-58
2023/10/20 08:26:39;;;;;;;11.57;3.80;;;;;;;;;;5067333;28;20044;-59
2023/10/20 08:29:06;;;;;;;9.40;3.58;;;;;;;;;;5070034;28;20052;-59
2023/10/20 08:31:32;;;;;;;5.95;3.00;;;;;;;;;;5066858;28;20123;-59
2023/10/20 08:34:00;;;;;;;8.52;4.25;;;;;;;;;;5070899;28;20068;-59
2023/10/20 08:36:26;;;;;;;7.30;3.45;;;;;;;;;;5072337;28;20120;-59
2023/10/20 08:38:52;;;;;;;6.22;3.20;;;;;;;;;;5069434;28;20043;-59
2023/10/20 08:41:21;;;;;;;7.00;3.15;;;;;;;;;;5065138;28;20041;-59
2023/10/20 08:43:48;;;;;;;7.22;3.55;;;;;;;;;;5071949;28;20084;-59
2023/10/20 08:46:16;;;;;;;8.90;3.58;;;;;;;;;;5070904;28;20040;-58
2023/10/20 08:48:42;;;;;;;6.97;3.28;;;;;;;;;;5070330;28;20063;-58
2023/10/20 08:51:09;;;;;;;6.78;3.20;;;;;;;;;;5072376;28;20659;-59
2023/10/20 08:53:36;;;;;;;6.88;3.25;;;;;;;;;;5069190;28;20041;-59
2023/10/20 08:56:07;;;;;;;6.07;3.20;;;;;;;;;;5070495;28;20044;-59
2023/10/20 08:58:33;;;;;;;7.57;3.35;;;;;;;;;;5068060;28;20041;-58
2023/10/20 09:01:00;;;;;;;6.47;3.38;;;;;;;;;;5067808;28;20059;-58
2023/10/20 09:03:27;;;;;;;5.35;2.75;;;;;;;;;;5069522;28;20400;-59
2023/10/20 09:05:54;;;;;;;7.25;3.28;;;;;;;;;;5070151;28;20055;-59
2023/10/20 09:08:20;;;;;;;7.25;3.03;;;;;;;;;;5068870;28;20036;-59
2023/10/20 09:10:46;;;;;;;4.68;2.28;;;;;;;;;;5066345;28;20546;-59
2023/10/20 09:13:13;;;;;;;7.82;2.58;;;;;;;;;;5066357;28;20443;-58
2023/10/20 09:15:39;;;;;;;5.75;2.47;;;;;;;;;;5067466;28;20064;-58
2023/10/20 09:18:08;;;;;;;4.90;2.10;;;;;;;;;;5065162;28;20060;-59
2023/10/20 09:20:35;;;;;;;4.50;2.03;;;;;;;;;;5056920;28;20056;-59
2023/10/20 09:23:01;;;;;;;4.50;2.03;;;;;;;;;;5063961;28;20038;-59
2023/10/20 09:25:28;;;;;;;4.22;2.08;;;;;;;;;;5065566;28;20415;-59
2023/10/20 09:27:55;;;;;;;4.53;2.00;;;;;;;;;;5063637;28;20040;-59
2023/10/20 09:30:21;;;;;;;6.50;2.25;;;;;;;;;;5059049;28;20136;-59
2023/10/20 09:32:47;;;;;;;4.90;2.05;;;;;;;;;;5060489;28;20466;-59
2023/10/20 09:35:13;;;;;;;8.90;2.67;;;;;;;;;;5061017;28;20478;-59
2023/10/20 09:37:41;;;;;;;4.57;2.10;;;;;;;;;;5058759;28;20044;-59
2023/10/20 09:40:08;;;;;;;4.78;2.08;;;;;;;;;;5062173;28;20462;-59
2023/10/20 09:42:42;;;;;;;4.32;2.08;;;;;;;;;;5062016;28;20045;-59
2023/10/20 09:45:11;;;;;;;5.65;2.17;;;;;;;;;;5060653;28;20098;-59
2023/10/20 09:47:40;;;;;;;5.30;1.67;;;;;;;;;;5060221;28;20083;-59
2023/10/20 09:50:06;;;;;;;3.40;1.80;;;;;;;;;;5064189;28;20052;-59
2023/10/20 09:52:33;;;;;;;3.20;1.60;;;;;;;;;;5063898;28;20046;-59
2023/10/20 09:55:00;;;;;;;3.80;1.60;;;;;;;;;;5065947;28;20060;-59
2023/10/20 09:57:27;;;;;;;3.17;1.77;;;;;;;;;;5067433;28;20048;-59
2023/10/20 09:59:54;;;;;;;4.80;1.70;;;;;;;;;;5063409;28;20119;-59
2023/10/20 10:02:29;;;;;;;3.90;1.55;;;;;;;;;;5066193;28;20040;-59
2023/10/20 10:04:59;;;;;;;4.15;1.60;;;;;;;;;;5069183;28;20044;-59
2023/10/20 10:07:29;;;;;;;3.92;1.63;;;;;;;;;;5064450;28;20108;-59
2023/10/20 10:09:56;;;;;;;3.63;1.50;;;;;;;;;;5064791;28;20049;-58
2023/10/20 10:12:24;;;;;;;3.47;1.30;;;;;;;;;;5069272;28;20052;-59
2023/10/20 10:14:59;;;;;;;3.53;1.40;;;;;;;;;;5068679;28;20048;-58
2023/10/20 10:17:26;;;;;;;3.13;1.38;;;;;;;;;;5068734;28;20063;-59
2023/10/20 10:19:53;;;;;;;1.95;0.98;;;;;;;;;;5068133;28;20060;-59
2023/10/20 10:22:23;;;;;;;3.40;1.40;;;;;;;;;;5068362;28;20492;-59
2023/10/20 10:24:56;;;;;;;3.28;1.38;;;;;;;;;;5066757;28;20568;-59
2023/10/20 10:27:26;;;;;;;3.60;1.27;;;;;;;;;;5069205;28;20059;-59
2023/10/20 10:30:05;;;;;;;2.88;1.20;;;;;;;;;;5069610;28;20064;-58
2023/10/20 10:32:32;;;;;;;3.55;1.27;;;;;;;;;;5069661;28;20070;-59
2023/10/20 10:34:58;;;;;;;3.63;1.38;;;;;;;;;;5066926;28;20041;-59
2023/10/20 10:37:29;;;;;;;4.80;1.38;;;;;;;;;;5070418;28;20119;-58
2023/10/20 10:40:07;;;;;;;4.15;1.55;;;;;;;;;;5067499;28;20691;-59
2023/10/20 10:42:38;;;;;;;3.47;1.50;;;;;;;;;;5068886;28;20555;-58
2023/10/20 10:45:14;;;;;;;5.40;1.73;;;;;;;;;;5068851;28;20055;-59
2023/10/20 10:47:40;;;;;;;3.08;0.90;;;;;;;;;;5064123;28;20526;-59
2023/10/20 10:50:06;;;;;;;2.15;0.90;;;;;;;;;;5064836;28;20040;-58
2023/10/20 10:52:35;;;;;;;3.25;1.10;;;;;;;;;;5067703;28;20418;-59
2023/10/20 10:55:02;;;;;;;2.20;1.02;;;;;;;;;;5069827;28;20055;-59
2023/10/20 10:57:28;;;;;;;1.85;0.93;;;;;;;;;;5068514;28;20476;-58
2023/10/20 10:59:55;;;;;;;3.42;1.10;;;;;;;;;;5066145;28;20032;-58
2023/10/20 11:02:21;;;;;;;4.28;1.05;;;;;;;;;;5079695;28;20085;-59
2023/10/20 11:04:48;;;;;;;2.88;1.05;;;;;;;;;;5062586;28;20506;-58
2023/10/20 11:07:14;;;;;;;3.17;0.90;;;;;;;;;;5072356;28;20044;-59
2023/10/20 11:09:41;;;;;;;3.20;1.23;;;;;;;;;;5072623;28;20032;-58
2023/10/20 11:12:10;;;;;;;5.50;1.38;;;;;;;;;;5074271;28;20089;-59
2023/10/20 11:14:39;;;;;;;5.03;1.30;;;;;;;;;;5074173;28;20399;-59
2023/10/20 11:17:05;;;;;;;4.03;1.42;;;;;;;;;;5073516;28;20542;-58
2023/10/20 11:19:32;;;;;;;2.88;1.20;;;;;;;;;;5072212;28;20048;-59
2023/10/20 11:21:58;;;;;;;3.65;1.00;;;;;;;;;;5063150;28;20051;-59
2023/10/20 11:24:25;;;;;;;2.42;0.90;;;;;;;;;;5071561;28;20037;-59
2023/10/20 11:26:59;;;;;;;5.03;1.60;;;;;;;;;;5073197;28;20040;-59
2023/10/20 11:29:26;;;;;;;3.13;1.00;;;;;;;;;;5068885;28;20140;-59
2023/10/20 11:31:53;;;;;;;1.92;0.88;;;;;;;;;;5072795;28;20127;-59
2023/10/20 11:34:19;;;;;;;2.65;1.08;;;;;;;;;;5071632;28;20118;-59
2023/10/20 11:36:45;;;;;;;1.75;0.70;;;;;;;;;;5065652;28;20041;-63
2023/10/20 11:39:11;;;;;;;1.95;0.80;;;;;;;;;;5072219;28;20083;-59
2023/10/20 11:41:37;;;;;;;1.85;0.82;;;;;;;;;;5073047;28;20056;-59
2023/10/20 11:44:04;;;;;;;4.50;1.00;;;;;;;;;;5070596;28;20094;-59
2023/10/20 11:46:30;;;;;;;6.78;0.90;;;;;;;;;;5071634;28;20484;-59
2023/10/20 11:48:56;;;;;;;4.43;1.23;;;;;;;;;;5067448;28;21036;-58
2023/10/20 11:51:22;;;;;;;1.75;0.68;;;;;;;;;;5063375;28;20052;-59
2023/10/20 11:53:48;;;;;;;4.68;0.93;;;;;;;;;;5070101;28;20109;-58
2023/10/20 11:56:15;;;;;;;4.35;1.17;;;;;;;;;;5073080;28;20392;-58
2023/10/20 11:58:41;;;;;;;2.05;0.95;;;;;;;;;;5072576;28;20127;-59
2023/10/20 12:01:07;;;;;;;2.40;0.70;;;;;;;;;;5069628;28;20394;-59
2023/10/20 12:03:33;;;;;;;1.27;0.57;;;;;;;;;;5071223;28;20170;-59
2023/10/20 12:06:00;;;;;;;1.10;0.60;;;;;;;;;;5069232;28;20048;-58
2023/10/20 12:08:26;;;;;;;1.88;0.70;;;;;;;;;;5071695;28;20071;-59
2023/10/20 12:10:52;;;;;;;1.98;0.68;;;;;;;;;;5070489;28;20099;-59
2023/10/20 12:13:18;;;;;;;2.47;0.90;;;;;;;;;;5068750;28;20040;-59
2023/10/20 12:15:45;;;;;;;1.75;0.70;;;;;;;;;;5071746;28;20459;-59
2023/10/20 12:18:11;;;;;;;3.05;0.90;;;;;;;;;;5071175;28;20064;-59
2023/10/20 12:20:37;;;;;;;2.20;0.65;;;;;;;;;;5070714;28;20169;-59
2023/10/20 12:23:05;;;;;;;3.10;0.70;;;;;;;;;;5066998;28;20411;-59
2023/10/20 12:25:32;;;;;;;1.90;0.60;;;;;;;;;;5069120;28;20056;-59
2023/10/20 12:27:59;;;;;;;1.83;0.80;;;;;;;;;;5071931;28;20140;-59
2023/10/20 12:30:26;;;;;;;1.80;0.82;;;;;;;;;;5061392;28;20396;-59
2023/10/20 12:32:52;;;;;;;3.67;0.75;;;;;;;;;;5069850;28;20135;-58
2023/10/20 12:35:18;;;;;;;2.72;0.77;;;;;;;;;;5071774;28;20367;-58
2023/10/20 12:37:46;;;;;;;2.47;0.70;;;;;;;;;;5070672;28;20457;-59
2023/10/20 12:40:13;;;;;;;2.20;0.70;;;;;;;;;;5070681;28;20095;-59
2023/10/20 12:42:40;;;;;;;2.45;0.82;;;;;;;;;;5072205;28;20493;-59
2023/10/20 12:45:09;;;;;;;2.53;0.90;;;;;;;;;;5072447;28;20421;-59
2023/10/20 12:47:35;;;;;;;2.17;0.82;;;;;;;;;;5071765;28;20044;-59
2023/10/20 12:50:03;;;;;;;1.73;0.68;;;;;;;;;;5064636;28;20051;-59
2023/10/20 12:52:29;;;;;;;4.35;0.90;;;;;;;;;;5076038;28;20051;-59
2023/10/20 12:54:55;;;;;;;2.22;1.10;;;;;;;;;;5070416;28;20068;-59
2023/10/20 12:57:22;;;;;;;4.15;0.82;;;;;;;;;;5072254;28;20544;-59
2023/10/20 12:59:48;;;;;;;2.25;0.95;;;;;;;;;;5070444;28;20044;-59
2023/10/20 13:02:14;;;;;;;1.85;0.82;;;;;;;;;;5068373;28;20056;-58
2023/10/20 13:04:41;;;;;;;2.42;0.70;;;;;;;;;;5071724;28;20036;-59
2023/10/20 13:07:07;;;;;;;1.50;0.88;;;;;;;;;;5071489;28;20053;-58
2023/10/20 13:09:34;;;;;;;3.25;0.82;;;;;;;;;;5069724;28;20528;-59
2023/10/20 13:12:00;;;;;;;1.42;0.75;;;;;;;;;;5071045;28;20036;-58
2023/10/20 13:14:29;;;;;;;2.53;0.80;;;;;;;;;;5069430;28;20055;-58
2023/10/20 13:16:56;;;;;;;2.97;1.30;;;;;;;;;;5067556;28;20427;-58
2023/10/20 13:19:23;;;;;;;3.30;1.23;;;;;;;;;;5067371;28;20052;-59
2023/10/20 13:21:49;;;;;;;3.92;1.38;;;;;;;;;;5071768;28;20048;-59
2023/10/20 13:24:16;;;;;;;1.50;0.60;;;;;;;;;;5070151;28;20415;-58
2023/10/20 13:26:42;;;;;;;1.45;0.63;;;;;;;;;;5067652;28;20047;-59
2023/10/20 13:29:09;;;;;;;2.28;0.82;;;;;;;;;;5070525;28;20056;-59
2023/10/20 13:31:35;;;;;;;2.08;0.75;;;;;;;;;;5070695;28;20046;-58
2023/10/20 13:34:02;;;;;;;4.35;0.80;;;;;;;;;;5070073;28;20064;-59
2023/10/20 13:36:28;;;;;;;1.63;0.73;;;;;;;;;;5069244;28;20063;-58
2023/10/20 13:38:54;;;;;;;0.93;0.50;;;;;;;;;;5058022;28;20053;-58
2023/10/20 13:41:21;;;;;;;1.20;0.60;;;;;;;;;;5070728;28;20071;-58
2023/10/20 13:43:47;;;;;;;1.45;0.70;;;;;;;;;;5062074;28;20044;-59
2023/10/20 13:46:13;;;;;;;2.08;0.75;;;;;;;;;;5062878;28;20037;-58
2023/10/20 13:48:39;;;;;;;1.38;0.60;;;;;;;;;;5059091;28;20041;-58
2023/10/20 13:51:05;;;;;;;2.08;0.60;;;;;;;;;;5061337;28;20130;-58
2023/10/20 13:53:32;;;;;;;1.67;0.52;;;;;;;;;;5059523;28;20044;-59
2023/10/20 13:55:58;;;;;;;2.45;0.77;;;;;;;;;;5060017;28;20041;-59
2023/10/20 13:58:25;;;;;;;1.38;0.50;;;;;;;;;;5060838;28;20076;-59
2023/10/20 14:00:51;;;;;;;1.15;0.60;;;;;;;;;;5060516;28;20559;-58
2023/10/20 14:03:17;;;;;;;1.50;0.50;;;;;;;;;;5061471;28;20093;-59
2023/10/20 14:05:54;;;;;;;2.42;0.60;;;;;;;;;;5059921;28;20119;-59
2023/10/20 14:08:23;;;;;;;2.75;0.60;;;;;;;;;;5063936;28;20056;-59
2023/10/20 14:10:50;;;;;;;1.83;0.80;;;;;;;;;;5063053;28;20127;-59
2023/10/20 14:13:17;;;;;;;2.30;0.70;;;;;;;;;;5060338;28;20049;-58
2023/10/20 14:15:44;;;;;;;1.02;0.55;;;;;;;;;;5061150;28;20044;-58
2023/10/20 14:18:10;;;;;;;1.25;0.68;;;;;;;;;;5045185;28;20047;-58
2023/10/20 14:20:36;;;;;;;1.52;0.60;;;;;;;;;;5064045;28;20131;-58
2023/10/20 14:23:04;;;;;;;1.40;0.60;;;;;;;;;;5065151;28;20122;-58
2023/10/20 14:25:31;;;;;;;4.43;0.82;;;;;;;;;;5063731;28;20048;-60
2023/10/20 14:27:57;;;;;;;2.25;0.70;;;;;;;;;;5061125;28;20052;-59
2023/10/20 14:30:23;;;;;;;1.30;0.60;;;;;;;;;;5060272;28;20534;-58
2023/10/20 14:32:49;;;;;;;2.25;1.05;;;;;;;;;;5062220;28;20092;-59
2023/10/20 14:35:15;;;;;;;3.70;1.00;;;;;;;;;;5059610;28;20388;-59
2023/10/20 14:37:41;;;;;;;2.83;1.17;;;;;;;;;;5061918;28;20045;-59
2023/10/20 14:40:08;;;;;;;2.17;1.02;;;;;;;;;;5062174;28;20037;-59
2023/10/20 14:42:34;;;;;;;3.20;2.17;;;;;;;;;;5061937;28;20147;-59
2023/10/20 14:45:00;;;;;;;2.08;1.02;;;;;;;;;;5062369;28;20037;-59
2023/10/20 14:47:26;;;;;;;1.70;0.93;;;;;;;;;;5059527;28;20518;-58
2023/10/20 14:49:53;;;;;;;1.52;0.85;;;;;;;;;;5069331;28;20392;-59
2023/10/20 14:52:20;;;;;;;6.55;5.88;;;;;;;;;;5070344;28;20046;-59
2023/10/20 14:54:46;;;;;;;1.63;0.90;;;;;;;;;;5069751;28;20052;-59
2023/10/20 14:57:12;;;;;;;3.80;1.83;;;;;;;;;;5069518;28;20037;-59
2023/10/20 14:59:38;;;;;;;1.38;0.90;;;;;;;;;;5069807;28;20095;-59
2023/10/20 15:02:05;;;;;;;5.85;0.95;;;;;;;;;;5067169;28;20113;-59
2023/10/20 15:04:34;;;;;;;0.88;0.43;;;;;;;;;;5068906;28;20194;-59
2023/10/20 15:07:00;;;;;;;2.30;0.85;;;;;;;;;;5069961;28;20380;-59